createdAt,value
2022-08-01T00:01:03.939Z,2.47
2022-08-01T00:04:06.194Z,2.33
2022-08-01T00:07:08.232Z,2.58
2022-08-01T00:10:15.048Z,2.90
2022-08-01T00:13:16.994Z,2.70
2022-08-01T00:16:19.409Z,2.90
2022-08-01T00:19:21.331Z,2.40
2022-08-01T00:22:23.543Z,2.70
2022-08-01T00:25:33.923Z,2.53
2022-08-01T00:28:36.584Z,2.80
2022-08-01T00:31:38.527Z,2.90
2022-08-01T00:34:40.520Z,2.53
2022-08-01T00:37:42.489Z,2.63
2022-08-01T00:40:44.571Z,2.60
2022-08-01T00:43:46.533Z,2.67
2022-08-01T00:46:48.460Z,2.30
2022-08-01T00:49:50.505Z,2.63
2022-08-01T00:52:52.760Z,2.65
2022-08-01T00:55:54.842Z,3.00
2022-08-01T00:58:56.894Z,2.60
2022-08-01T01:01:58.946Z,2.58
2022-08-01T01:05:01.475Z,2.63
2022-08-01T01:08:09.549Z,2.95
2022-08-01T01:11:36.828Z,2.60
2022-08-01T01:15:11.821Z,2.50
2022-08-01T01:18:21.363Z,3.10
2022-08-01T01:21:24.969Z,2.60
2022-08-01T01:24:46.037Z,2.60
2022-08-01T01:28:12.147Z,2.65
2022-08-01T01:31:15.601Z,2.58
2022-08-01T01:34:20.778Z,2.33
2022-08-01T01:37:26.055Z,2.50
2022-08-01T01:40:31.199Z,2.60
2022-08-01T01:43:34.466Z,2.70
2022-08-01T01:46:37.212Z,2.53
2022-08-01T01:49:40.993Z,2.53
2022-08-01T01:52:45.070Z,2.63
2022-08-01T01:55:51.377Z,2.60
2022-08-01T01:58:56.467Z,2.60
2022-08-01T02:02:06.344Z,2.75
2022-08-01T02:05:13.019Z,2.78
2022-08-01T02:08:19.249Z,3.10
2022-08-01T02:11:23.109Z,2.78
2022-08-01T02:14:28.072Z,2.75
2022-08-01T02:17:31.715Z,2.70
2022-08-01T02:20:36.353Z,2.75
2022-08-01T02:23:40.143Z,2.40
2022-08-01T02:26:47.829Z,2.58
2022-08-01T02:30:23.248Z,2.25
2022-08-01T02:33:42.649Z,2.67
2022-08-01T02:36:46.850Z,2.50
2022-08-01T02:39:53.559Z,2.20
2022-08-01T02:42:58.054Z,3.08
2022-08-01T02:46:03.676Z,2.80
2022-08-01T02:49:08.895Z,2.60
2022-08-01T02:52:15.503Z,3.00
2022-08-01T02:55:19.283Z,2.70
2022-08-01T02:58:29.388Z,2.53
2022-08-01T03:01:35.058Z,2.80
2022-08-01T03:04:41.662Z,2.70
2022-08-01T03:07:44.246Z,2.50
2022-08-01T03:10:47.973Z,2.87
2022-08-01T03:13:52.908Z,2.80
2022-08-01T03:16:56.995Z,3.50
2022-08-01T03:20:01.952Z,2.78
2022-08-01T03:23:09.689Z,3.08
2022-08-01T03:26:12.080Z,2.63
2022-08-01T03:29:20.823Z,3.13
2022-08-01T03:32:24.069Z,2.95
2022-08-01T03:35:34.702Z,3.10
2022-08-01T03:38:40.462Z,3.10
2022-08-01T03:41:52.509Z,3.10
2022-08-01T03:45:03.734Z,3.00
2022-08-01T03:48:11.828Z,2.80
2022-08-01T03:51:15.435Z,3.35
2022-08-01T03:54:23.543Z,2.97
2022-08-01T03:57:36.050Z,3.30
2022-08-01T04:00:40.659Z,3.50
2022-08-01T04:03:43.636Z,3.30
2022-08-01T04:06:46.081Z,3.35
2022-08-01T04:09:48.024Z,3.42
2022-08-01T04:12:50.764Z,3.70
2022-08-01T04:15:52.727Z,3.80
2022-08-01T04:18:55.487Z,3.78
2022-08-01T04:21:57.695Z,3.80
2022-08-01T04:25:02.727Z,3.33
2022-08-01T04:28:08.499Z,3.07
2022-08-01T04:31:12.691Z,3.20
2022-08-01T04:34:18.316Z,2.95
2022-08-01T04:37:20.716Z,3.42
2022-08-01T04:40:23.589Z,3.80
2022-08-01T04:43:25.663Z,3.67
2022-08-01T04:46:29.458Z,3.78
2022-08-01T04:49:48.481Z,3.63
2022-08-01T04:52:52.414Z,3.42
2022-08-01T04:55:54.678Z,4.00
2022-08-01T04:59:20.085Z,3.80
2022-08-01T05:02:22.319Z,3.47
2022-08-01T05:05:27.224Z,3.50
2022-08-01T05:08:29.295Z,3.67
2022-08-01T05:11:31.750Z,3.65
2022-08-01T05:14:34.389Z,3.30
2022-08-01T05:17:36.806Z,3.67
2022-08-01T05:20:39.514Z,3.22
2022-08-01T05:23:43.299Z,3.05
2022-08-01T05:26:45.482Z,3.67
2022-08-01T05:29:50.174Z,3.43
2022-08-01T05:32:52.111Z,3.70
2022-08-01T05:35:54.092Z,3.30
2022-08-01T05:38:56.416Z,3.15
2022-08-01T05:41:58.395Z,3.50
2022-08-01T05:45:00.345Z,3.20
2022-08-01T05:48:02.285Z,3.28
2022-08-01T05:51:04.601Z,3.38
2022-08-01T05:54:06.680Z,3.55
2022-08-01T05:57:08.810Z,3.15
2022-08-01T06:00:13.539Z,2.73
2022-08-01T06:03:15.518Z,2.97
2022-08-01T06:06:17.694Z,2.90
2022-08-01T06:09:19.680Z,2.50
2022-08-01T06:12:21.625Z,2.60
2022-08-01T06:15:25.380Z,2.40
2022-08-01T06:18:27.471Z,2.38
2022-08-01T06:21:29.696Z,2.25
2022-08-01T06:24:31.712Z,2.20
2022-08-01T06:27:35.713Z,2.20
2022-08-01T06:30:37.816Z,2.30
2022-08-01T06:33:39.776Z,2.00
2022-08-01T06:36:41.924Z,2.17
2022-08-01T06:39:44.196Z,2.10
2022-08-01T06:42:47.552Z,1.90
2022-08-01T06:45:49.955Z,2.00
2022-08-01T06:48:52.056Z,1.92
2022-08-01T06:51:54.085Z,1.92
2022-08-01T06:54:56.092Z,1.70
2022-08-01T06:57:58.161Z,2.05
2022-08-01T07:01:00.475Z,1.80
2022-08-01T07:04:03.643Z,1.60
2022-08-01T07:07:05.780Z,2.30
2022-08-01T07:10:09.640Z,1.75
2022-08-01T07:13:13.218Z,1.77
2022-08-01T07:16:15.996Z,1.70
2022-08-01T07:19:18.287Z,1.75
2022-08-01T07:22:23.180Z,1.73
2022-08-01T07:25:25.719Z,1.58
2022-08-01T07:28:31.050Z,1.90
2022-08-01T07:31:33.083Z,1.83
2022-08-01T07:34:35.309Z,1.73
2022-08-01T07:37:47.667Z,2.20
2022-08-01T07:40:51.347Z,1.80
2022-08-01T07:43:58.000Z,2.10
2022-08-01T07:47:02.609Z,1.60
2022-08-01T07:50:06.880Z,1.90
2022-08-01T07:53:11.207Z,1.50
2022-08-01T07:56:13.140Z,1.52
2022-08-01T07:59:15.190Z,2.00
2022-08-01T08:02:26.136Z,2.00
2022-08-01T08:05:58.485Z,1.88
2022-08-01T08:08:50.489Z,2.10
2022-08-01T08:11:52.644Z,1.92
2022-08-01T08:14:54.722Z,1.75
2022-08-01T08:17:56.718Z,2.20
2022-08-01T08:21:02.382Z,1.90
2022-08-01T08:24:26.562Z,1.90
2022-08-01T08:27:29.146Z,2.15
2022-08-01T08:30:31.844Z,1.90
2022-08-01T08:33:33.859Z,1.77
2022-08-01T08:36:36.037Z,1.88
2022-08-01T08:39:41.572Z,2.35
2022-08-01T08:42:47.340Z,1.90
2022-08-01T08:45:59.666Z,2.03
2022-08-01T08:49:04.936Z,1.83
2022-08-01T08:52:09.265Z,2.08
2022-08-01T08:55:12.566Z,2.03
2022-08-01T08:58:18.835Z,1.85
2022-08-01T09:01:23.026Z,2.00
2022-08-01T09:04:26.565Z,2.07
2022-08-01T09:07:28.910Z,1.83
2022-08-01T09:10:32.016Z,1.95
2022-08-01T09:13:34.360Z,1.90
2022-08-01T09:16:38.397Z,2.10
2022-08-01T09:19:48.856Z,2.00
2022-08-01T09:22:50.989Z,1.90
2022-08-01T09:25:56.927Z,2.38
2022-08-01T09:29:04.970Z,2.05
2022-08-01T09:32:08.530Z,2.10
2022-08-01T09:35:36.378Z,2.20
2022-08-01T09:38:50.896Z,1.70
2022-08-01T09:41:56.595Z,2.00
2022-08-01T09:44:58.803Z,1.80
2022-08-01T09:48:10.576Z,2.08
2022-08-01T09:51:14.002Z,2.13
2022-08-01T09:54:35.996Z,1.73
2022-08-01T09:57:39.031Z,1.83
2022-08-01T10:00:45.751Z,1.70
2022-08-01T10:03:48.053Z,2.00
2022-08-01T10:06:55.566Z,1.77
2022-08-01T10:10:10.708Z,1.58
2022-08-01T10:13:13.939Z,1.70
2022-08-01T10:16:17.382Z,1.80
2022-08-01T10:19:23.688Z,1.88
2022-08-01T10:22:27.826Z,1.80
2022-08-01T10:25:42.487Z,1.90
2022-08-01T10:28:49.083Z,1.90
2022-08-01T10:31:52.353Z,1.83
2022-08-01T10:34:55.828Z,2.00
2022-08-01T10:37:59.136Z,1.80
2022-08-01T10:41:05.972Z,1.80
2022-08-01T10:44:09.754Z,1.92
2022-08-01T10:47:18.177Z,2.00
2022-08-01T10:50:42.703Z,1.73
2022-08-01T10:53:54.855Z,1.60
2022-08-01T10:57:01.229Z,1.75
2022-08-01T11:00:05.009Z,1.80
2022-08-01T11:03:08.446Z,1.73
2022-08-01T11:06:20.799Z,1.88
2022-08-01T11:09:36.618Z,2.00
2022-08-01T11:12:41.269Z,1.70
2022-08-01T11:15:49.886Z,1.80
2022-08-01T11:18:52.984Z,1.90
2022-08-01T11:22:01.337Z,1.90
2022-08-01T11:25:04.390Z,1.97
2022-08-01T11:28:28.220Z,1.60
2022-08-01T11:31:37.375Z,1.70
2022-08-01T11:34:56.831Z,1.63
2022-08-01T11:38:27.688Z,1.60
2022-08-01T11:41:38.479Z,1.70
2022-08-01T11:44:51.913Z,1.60
2022-08-01T11:47:54.140Z,1.70
2022-08-01T11:51:02.061Z,1.55
2022-08-01T11:54:04.651Z,1.80
2022-08-01T11:57:10.728Z,1.87
2022-08-01T12:00:17.835Z,2.00
2022-08-01T12:03:34.304Z,1.90
2022-08-01T12:06:36.866Z,1.40
2022-08-01T12:09:38.878Z,1.40
2022-08-01T12:12:49.633Z,1.50
2022-08-01T12:15:56.548Z,1.50
2022-08-01T12:18:59.305Z,1.80
2022-08-01T12:22:14.978Z,1.70
2022-08-01T12:25:18.823Z,1.55
2022-08-01T12:28:20.793Z,1.87
2022-08-01T12:31:32.688Z,1.95
2022-08-01T12:34:35.232Z,1.80
2022-08-01T12:37:38.343Z,1.80
2022-08-01T12:40:45.574Z,1.80
2022-08-01T12:43:48.933Z,2.30
2022-08-01T12:46:51.110Z,2.00
2022-08-01T12:49:53.444Z,1.95
2022-08-01T12:52:55.853Z,1.90
2022-08-01T12:56:00.044Z,1.90
2022-08-01T12:59:03.087Z,1.97
2022-08-01T13:02:09.894Z,1.95
2022-08-01T13:05:12.472Z,2.10
2022-08-01T13:08:17.862Z,2.28
2022-08-01T13:11:20.863Z,2.30
2022-08-01T13:14:30.140Z,1.70
2022-08-01T13:17:33.908Z,1.80
2022-08-01T13:20:36.639Z,1.90
2022-08-01T13:24:03.313Z,1.90
2022-08-01T13:27:06.292Z,1.75
2022-08-01T13:30:16.759Z,1.97
2022-08-01T13:33:18.896Z,1.92
2022-08-01T13:36:20.864Z,2.00
2022-08-01T13:39:43.287Z,2.00
2022-08-01T13:42:45.290Z,1.90
2022-08-01T13:45:47.441Z,1.63
2022-08-01T13:48:50.415Z,1.92
2022-08-01T13:51:53.320Z,2.25
2022-08-01T13:54:55.294Z,1.88
2022-08-01T13:57:57.426Z,2.17
2022-08-01T14:00:59.736Z,2.00
2022-08-01T14:04:02.555Z,2.10
2022-08-01T14:07:10.612Z,2.20
2022-08-01T14:10:18.358Z,1.90
2022-08-01T14:13:23.960Z,2.03
2022-08-01T14:16:26.201Z,1.90
2022-08-01T14:19:38.763Z,1.85
2022-08-01T14:22:41.616Z,2.20
2022-08-01T14:26:01.781Z,1.80
2022-08-01T14:29:05.875Z,2.20
2022-08-01T14:32:08.090Z,2.00
2022-08-01T14:35:10.520Z,2.60
2022-08-01T14:38:12.746Z,2.10
2022-08-01T14:41:23.884Z,2.10
2022-08-01T14:44:28.105Z,2.22
2022-08-01T14:47:36.075Z,2.00
2022-08-01T14:50:40.292Z,2.20
2022-08-01T14:53:46.502Z,1.92
2022-08-01T14:56:54.056Z,1.80
2022-08-01T14:59:56.067Z,1.92
2022-08-01T15:02:58.026Z,1.80
2022-08-01T15:06:00.376Z,2.03
2022-08-01T15:09:02.702Z,1.88
2022-08-01T15:12:11.435Z,1.90
2022-08-01T15:15:13.594Z,2.03
2022-08-01T15:18:15.698Z,1.80
2022-08-01T15:21:39.961Z,1.83
2022-08-01T15:24:40.901Z,1.88
2022-08-01T15:27:43.412Z,1.65
2022-08-01T15:30:46.164Z,1.75
2022-08-01T15:33:48.175Z,1.77
2022-08-01T15:36:50.234Z,2.08
2022-08-01T15:39:56.489Z,1.70
2022-08-01T15:43:00.175Z,1.80
2022-08-01T15:46:02.490Z,1.90
2022-08-01T15:49:06.313Z,1.90
2022-08-01T15:52:09.265Z,1.70
2022-08-01T15:55:24.618Z,2.15
2022-08-01T15:58:26.614Z,1.50
2022-08-01T16:01:28.697Z,1.65
2022-08-01T16:04:30.714Z,1.77
2022-08-01T16:07:32.813Z,1.60
2022-08-01T16:10:34.970Z,1.58
2022-08-01T16:13:37.152Z,1.48
2022-08-01T16:16:39.361Z,2.03
2022-08-01T16:19:41.483Z,2.00
2022-08-01T16:22:43.395Z,2.00
2022-08-01T16:25:46.531Z,1.85
2022-08-01T16:28:52.174Z,2.28
2022-08-01T16:31:59.152Z,1.92
2022-08-01T16:35:03.972Z,1.60
2022-08-01T16:38:07.162Z,1.70
2022-08-01T16:41:19.304Z,1.83
2022-08-01T16:44:26.778Z,1.92
2022-08-01T16:47:35.992Z,1.85
2022-08-01T16:50:38.547Z,2.00
2022-08-01T16:53:40.565Z,2.17
2022-08-01T16:56:42.574Z,2.05
2022-08-01T16:59:44.856Z,1.45
2022-08-01T17:02:46.903Z,1.80
2022-08-01T17:05:48.984Z,1.43
2022-08-01T17:08:51.224Z,2.03
2022-08-01T17:11:53.211Z,1.83
2022-08-01T17:14:55.525Z,1.90
2022-08-01T17:17:57.644Z,2.38
2022-08-01T17:21:00.797Z,2.10
2022-08-01T17:24:02.921Z,2.03
2022-08-01T17:27:09.421Z,1.90
2022-08-01T17:30:20.553Z,1.90
2022-08-01T17:33:22.590Z,1.80
2022-08-01T17:36:24.539Z,1.87
2022-08-01T17:39:38.521Z,1.77
2022-08-01T17:42:41.698Z,1.92
2022-08-01T17:45:50.898Z,1.73
2022-08-01T17:48:53.431Z,2.35
2022-08-01T17:51:55.525Z,2.13
2022-08-01T17:54:58.508Z,2.00
2022-08-01T17:58:00.516Z,2.10
2022-08-01T18:01:03.718Z,1.85
2022-08-01T18:04:06.010Z,2.20
2022-08-01T18:07:08.838Z,2.20
2022-08-01T18:10:11.914Z,2.40
2022-08-01T18:13:18.331Z,2.03
2022-08-01T18:16:22.952Z,2.20
2022-08-01T18:19:25.082Z,2.47
2022-08-01T18:22:31.236Z,1.97
2022-08-01T18:25:40.041Z,2.30
2022-08-01T18:28:46.711Z,2.00
2022-08-01T18:31:49.102Z,2.50
2022-08-01T18:34:51.179Z,2.67
2022-08-01T18:37:54.540Z,2.30
2022-08-01T18:40:58.229Z,2.28
2022-08-01T18:44:05.810Z,2.33
2022-08-01T18:47:10.658Z,2.45
2022-08-01T18:50:13.027Z,2.40
2022-08-01T18:53:15.439Z,2.40
2022-08-01T18:56:17.403Z,2.47
2022-08-01T18:59:20.339Z,2.35
2022-08-01T19:02:22.691Z,2.25
2022-08-01T19:05:24.724Z,2.22
2022-08-01T19:08:26.801Z,2.53
2022-08-01T19:11:28.904Z,2.67
2022-08-01T19:14:31.119Z,2.70
2022-08-01T19:17:33.112Z,2.83
2022-08-01T19:20:42.522Z,3.13
2022-08-01T19:24:03.193Z,2.33
2022-08-01T19:27:09.155Z,2.45
2022-08-01T19:30:12.060Z,2.85
2022-08-01T19:33:15.423Z,2.90
2022-08-01T19:36:18.548Z,3.00
2022-08-01T19:39:27.109Z,3.17
2022-08-01T19:42:30.311Z,2.80
2022-08-01T19:45:33.467Z,3.10
2022-08-01T19:48:39.581Z,2.75
2022-08-01T19:51:53.431Z,3.20
2022-08-01T19:54:56.704Z,2.70
2022-08-01T19:58:24.623Z,2.40
2022-08-01T20:01:21.548Z,3.13
2022-08-01T20:04:25.327Z,2.92
2022-08-01T20:07:28.632Z,3.45
2022-08-01T20:10:32.877Z,3.40
2022-08-01T20:13:36.873Z,3.63
2022-08-01T20:16:42.364Z,3.60
2022-08-01T20:19:44.426Z,3.85
2022-08-01T20:22:49.524Z,3.55
2022-08-01T20:25:54.856Z,4.07
2022-08-01T20:28:57.793Z,3.13
2022-08-01T20:32:00.245Z,3.33
2022-08-01T20:35:03.716Z,3.10
2022-08-01T20:38:08.665Z,3.13
2022-08-01T20:41:13.356Z,2.90
2022-08-01T20:44:15.923Z,3.53
2022-08-01T20:47:18.725Z,3.35
2022-08-01T20:50:52.809Z,3.17
2022-08-01T20:53:57.000Z,3.50
2022-08-01T20:57:22.029Z,3.00
2022-08-01T21:00:24.923Z,3.22
2022-08-01T21:03:36.362Z,3.35
2022-08-01T21:06:42.643Z,3.15
2022-08-01T21:09:49.758Z,3.13
2022-08-01T21:12:59.119Z,3.60
2022-08-01T21:16:22.201Z,2.90
2022-08-01T21:19:27.774Z,3.33
2022-08-01T21:22:53.914Z,3.00
2022-08-01T21:25:59.044Z,3.20
2022-08-01T21:29:04.996Z,3.60
2022-08-01T21:32:15.440Z,3.95
2022-08-01T21:35:19.103Z,3.83
2022-08-01T21:38:21.762Z,3.53
2022-08-01T21:42:03.375Z,3.33
2022-08-01T21:44:48.212Z,3.53
2022-08-01T21:47:51.178Z,3.78
2022-08-01T21:51:29.725Z,3.90
2022-08-01T21:54:44.231Z,3.20
2022-08-01T21:58:06.466Z,3.20
2022-08-01T22:01:23.034Z,3.40
2022-08-01T22:04:55.485Z,3.28
2022-08-01T22:08:03.028Z,3.67
2022-08-01T22:11:07.580Z,4.10
2022-08-01T22:14:14.874Z,3.58
2022-08-01T22:17:22.763Z,3.50
2022-08-01T22:20:27.957Z,3.63
2022-08-01T22:23:30.059Z,3.65
2022-08-01T22:26:33.721Z,3.15
2022-08-01T22:29:35.780Z,3.90
2022-08-01T22:32:42.195Z,3.60
2022-08-01T22:35:52.774Z,3.30
2022-08-01T22:38:54.788Z,3.40
2022-08-01T22:42:02.733Z,3.40
2022-08-01T22:45:16.507Z,3.35
2022-08-01T22:48:24.617Z,3.03
2022-08-01T22:51:58.498Z,3.30
2022-08-01T22:55:07.277Z,3.40
2022-08-01T22:58:11.522Z,3.38
2022-08-01T23:01:21.329Z,3.95
2022-08-01T23:04:34.655Z,3.80
2022-08-01T23:07:45.800Z,3.40
2022-08-01T23:10:47.972Z,3.55
2022-08-01T23:13:52.529Z,3.35
2022-08-01T23:16:55.078Z,3.90
2022-08-01T23:20:03.143Z,3.40
2022-08-01T23:23:06.322Z,3.35
2022-08-01T23:26:10.632Z,3.35
2022-08-01T23:29:12.638Z,3.53
2022-08-01T23:32:18.258Z,3.63
2022-08-01T23:35:20.507Z,3.33
2022-08-01T23:38:22.549Z,3.63
2022-08-01T23:41:24.646Z,3.53
2022-08-01T23:44:26.861Z,3.72
2022-08-01T23:47:28.842Z,3.30
2022-08-01T23:50:31.016Z,3.80
2022-08-01T23:53:34.112Z,4.10
2022-08-01T23:56:38.152Z,3.63
2022-08-01T23:59:53.580Z,3.90
